sensor_id;sensor_type;location;lat;lon;timestamp;P1;durP1;ratioP1;P2;durP2;ratioP2
40945;SDS011;55635;50.264;11.918;2023-04-06T00:00:02;8.10;;;5.95;;
40945;SDS011;55635;50.264;11.918;2023-04-06T00:02:49;9.48;;;6.10;;
40945;SDS011;55635;50.264;11.918;2023-04-06T00:05:32;10.80;;;6.40;;
40945;SDS011;55635;50.264;11.918;2023-04-06T00:08:13;6.18;;;5.35;;
40945;SDS011;55635;50.264;11.918;2023-04-06T00:10:55;6.75;;;6.03;;
40945;SDS011;55635;50.264;11.918;2023-04-06T00:13:36;10.23;;;6.18;;
40945;SDS011;55635;50.264;11.918;2023-04-06T00:16:17;7.97;;;5.90;;
40945;SDS011;55635;50.264;11.918;2023-04-06T00:19:00;9.55;;;5.65;;
40945;SDS011;55635;50.264;11.918;2023-04-06T00:21:41;8.27;;;5.47;;
40945;SDS011;55635;50.264;11.918;2023-04-06T00:24:22;10.32;;;5.95;;
40945;SDS011;55635;50.264;11.918;2023-04-06T00:27:03;8.80;;;5.97;;
40945;SDS011;55635;50.264;11.918;2023-04-06T00:29:45;10.95;;;5.97;;
40945;SDS011;55635;50.264;11.918;2023-04-06T00:32:26;8.73;;;6.00;;
40945;SDS011;55635;50.264;11.918;2023-04-06T00:35:08;7.43;;;5.85;;
40945;SDS011;55635;50.264;11.918;2023-04-06T00:37:49;9.05;;;6.50;;
40945;SDS011;55635;50.264;11.918;2023-04-06T00:40:30;12.45;;;6.00;;
40945;SDS011;55635;50.264;11.918;2023-04-06T00:43:13;12.30;;;6.63;;
40945;SDS011;55635;50.264;11.918;2023-04-06T00:45:54;8.00;;;6.05;;
40945;SDS011;55635;50.264;11.918;2023-04-06T00:48:35;8.70;;;6.28;;
40945;SDS011;55635;50.264;11.918;2023-04-06T00:51:16;6.55;;;5.72;;
40945;SDS011;55635;50.264;11.918;2023-04-06T00:53:58;8.63;;;5.65;;
40945;SDS011;55635;50.264;11.918;2023-04-06T00:56:39;9.32;;;6.03;;
40945;SDS011;55635;50.264;11.918;2023-04-06T00:59:23;11.15;;;6.75;;
40945;SDS011;55635;50.264;11.918;2023-04-06T01:02:04;8.38;;;7.13;;
40945;SDS011;55635;50.264;11.918;2023-04-06T01:04:55;8.80;;;6.15;;
40945;SDS011;55635;50.264;11.918;2023-04-06T01:07:50;7.93;;;6.28;;
40945;SDS011;55635;50.264;11.918;2023-04-06T01:10:36;10.32;;;6.97;;
40945;SDS011;55635;50.264;11.918;2023-04-06T01:13:36;9.07;;;6.78;;
40945;SDS011;55635;50.264;11.918;2023-04-06T01:16:21;7.75;;;6.38;;
40945;SDS011;55635;50.264;11.918;2023-04-06T01:19:21;7.93;;;6.13;;
40945;SDS011;55635;50.264;11.918;2023-04-06T01:22:06;9.45;;;6.25;;
40945;SDS011;55635;50.264;11.918;2023-04-06T01:24:58;8.25;;;6.30;;
40945;SDS011;55635;50.264;11.918;2023-04-06T01:27:45;9.02;;;6.72;;
40945;SDS011;55635;50.264;11.918;2023-04-06T01:30:38;10.48;;;5.78;;
40945;SDS011;55635;50.264;11.918;2023-04-06T01:33:26;10.65;;;7.05;;
40945;SDS011;55635;50.264;11.918;2023-04-06T01:36:15;11.30;;;6.97;;
40945;SDS011;55635;50.264;11.918;2023-04-06T01:38:58;8.60;;;6.47;;
40945;SDS011;55635;50.264;11.918;2023-04-06T01:41:46;7.70;;;6.32;;
40945;SDS011;55635;50.264;11.918;2023-04-06T01:44:29;10.65;;;6.75;;
40945;SDS011;55635;50.264;11.918;2023-04-06T01:47:20;9.25;;;6.75;;
40945;SDS011;55635;50.264;11.918;2023-04-06T01:50:02;9.35;;;6.35;;
40945;SDS011;55635;50.264;11.918;2023-04-06T01:52:48;10.85;;;7.55;;
40945;SDS011;55635;50.264;11.918;2023-04-06T01:55:30;9.63;;;6.90;;
40945;SDS011;55635;50.264;11.918;2023-04-06T01:58:34;9.07;;;6.30;;
40945;SDS011;55635;50.264;11.918;2023-04-06T02:01:16;6.90;;;6.20;;
40945;SDS011;55635;50.264;11.918;2023-04-06T02:04:08;10.75;;;6.78;;
40945;SDS011;55635;50.264;11.918;2023-04-06T02:06:50;8.20;;;6.00;;
40945;SDS011;55635;50.264;11.918;2023-04-06T02:09:35;10.52;;;6.03;;
40945;SDS011;55635;50.264;11.918;2023-04-06T02:12:18;8.27;;;5.93;;
40945;SDS011;55635;50.264;11.918;2023-04-06T02:14:59;8.25;;;5.45;;
40945;SDS011;55635;50.264;11.918;2023-04-06T02:17:41;8.82;;;6.07;;
40945;SDS011;55635;50.264;11.918;2023-04-06T02:20:23;8.98;;;6.22;;
40945;SDS011;55635;50.264;11.918;2023-04-06T02:23:05;8.30;;;6.07;;
40945;SDS011;55635;50.264;11.918;2023-04-06T02:25:47;7.68;;;5.38;;
40945;SDS011;55635;50.264;11.918;2023-04-06T02:28:28;6.93;;;5.45;;
40945;SDS011;55635;50.264;11.918;2023-04-06T02:31:09;10.43;;;6.13;;
40945;SDS011;55635;50.264;11.918;2023-04-06T02:33:51;8.15;;;5.40;;
40945;SDS011;55635;50.264;11.918;2023-04-06T02:36:33;8.63;;;6.68;;
40945;SDS011;55635;50.264;11.918;2023-04-06T02:39:14;9.00;;;6.00;;
40945;SDS011;55635;50.264;11.918;2023-04-06T02:41:56;9.77;;;6.82;;
40945;SDS011;55635;50.264;11.918;2023-04-06T02:44:39;10.88;;;6.88;;
40945;SDS011;55635;50.264;11.918;2023-04-06T02:47:20;12.23;;;6.65;;
40945;SDS011;55635;50.264;11.918;2023-04-06T02:50:03;12.20;;;7.18;;
40945;SDS011;55635;50.264;11.918;2023-04-06T02:52:47;9.93;;;6.93;;
40945;SDS011;55635;50.264;11.918;2023-04-06T02:55:28;13.05;;;6.88;;
40945;SDS011;55635;50.264;11.918;2023-04-06T02:58:10;7.50;;;6.72;;
40945;SDS011;55635;50.264;11.918;2023-04-06T03:00:58;8.45;;;6.68;;
40945;SDS011;55635;50.264;11.918;2023-04-06T03:03:40;8.98;;;6.32;;
40945;SDS011;55635;50.264;11.918;2023-04-06T03:06:27;12.18;;;6.50;;
40945;SDS011;55635;50.264;11.918;2023-04-06T03:09:13;7.97;;;6.30;;
40945;SDS011;55635;50.264;11.918;2023-04-06T03:11:56;12.55;;;7.30;;
40945;SDS011;55635;50.264;11.918;2023-04-06T03:14:38;10.65;;;6.95;;
40945;SDS011;55635;50.264;11.918;2023-04-06T03:17:19;10.77;;;6.75;;
40945;SDS011;55635;50.264;11.918;2023-04-06T03:20:00;9.70;;;6.38;;
40945;SDS011;55635;50.264;11.918;2023-04-06T03:22:44;8.05;;;5.97;;
40945;SDS011;55635;50.264;11.918;2023-04-06T03:25:28;13.77;;;6.97;;
40945;SDS011;55635;50.264;11.918;2023-04-06T03:28:14;10.35;;;6.93;;
40945;SDS011;55635;50.264;11.918;2023-04-06T03:31:11;8.50;;;6.55;;
40945;SDS011;55635;50.264;11.918;2023-04-06T03:33:58;9.02;;;6.15;;
40945;SDS011;55635;50.264;11.918;2023-04-06T03:36:44;12.75;;;6.47;;
40945;SDS011;55635;50.264;11.918;2023-04-06T03:39:25;9.05;;;6.22;;
40945;SDS011;55635;50.264;11.918;2023-04-06T03:42:07;10.27;;;7.63;;
40945;SDS011;55635;50.264;11.918;2023-04-06T03:44:51;9.52;;;6.53;;
40945;SDS011;55635;50.264;11.918;2023-04-06T03:47:32;8.85;;;6.55;;
40945;SDS011;55635;50.264;11.918;2023-04-06T03:50:18;8.73;;;7.22;;
40945;SDS011;55635;50.264;11.918;2023-04-06T03:52:59;8.95;;;6.32;;
40945;SDS011;55635;50.264;11.918;2023-04-06T03:55:43;10.07;;;7.05;;
40945;SDS011;55635;50.264;11.918;2023-04-06T03:58:24;10.48;;;6.88;;
40945;SDS011;55635;50.264;11.918;2023-04-06T04:01:06;14.55;;;7.30;;
40945;SDS011;55635;50.264;11.918;2023-04-06T04:03:48;9.20;;;7.03;;
40945;SDS011;55635;50.264;11.918;2023-04-06T04:06:29;9.43;;;6.88;;
40945;SDS011;55635;50.264;11.918;2023-04-06T04:09:11;9.75;;;7.45;;
40945;SDS011;55635;50.264;11.918;2023-04-06T04:11:52;10.88;;;6.60;;
40945;SDS011;55635;50.264;11.918;2023-04-06T04:14:34;11.70;;;7.05;;
40945;SDS011;55635;50.264;11.918;2023-04-06T04:17:15;12.68;;;7.57;;
40945;SDS011;55635;50.264;11.918;2023-04-06T04:19:56;11.88;;;6.50;;
40945;SDS011;55635;50.264;11.918;2023-04-06T04:22:37;8.68;;;6.85;;
40945;SDS011;55635;50.264;11.918;2023-04-06T04:25:18;10.63;;;8.38;;
40945;SDS011;55635;50.264;11.918;2023-04-06T04:28:02;12.63;;;7.53;;
40945;SDS011;55635;50.264;11.918;2023-04-06T04:30:44;12.90;;;6.53;;
40945;SDS011;55635;50.264;11.918;2023-04-06T04:33:26;9.27;;;6.93;;
40945;SDS011;55635;50.264;11.918;2023-04-06T04:36:10;10.32;;;8.07;;
40945;SDS011;55635;50.264;11.918;2023-04-06T04:38:56;13.63;;;7.20;;
40945;SDS011;55635;50.264;11.918;2023-04-06T04:41:38;10.80;;;7.15;;
40945;SDS011;55635;50.264;11.918;2023-04-06T04:44:22;13.52;;;7.65;;
40945;SDS011;55635;50.264;11.918;2023-04-06T04:47:04;9.85;;;7.10;;
40945;SDS011;55635;50.264;11.918;2023-04-06T04:49:55;13.32;;;8.07;;
40945;SDS011;55635;50.264;11.918;2023-04-06T04:52:38;12.05;;;8.15;;
40945;SDS011;55635;50.264;11.918;2023-04-06T04:55:35;9.63;;;7.50;;
40945;SDS011;55635;50.264;11.918;2023-04-06T04:58:19;10.40;;;7.90;;
40945;SDS011;55635;50.264;11.918;2023-04-06T05:01:06;12.48;;;8.00;;
40945;SDS011;55635;50.264;11.918;2023-04-06T05:03:47;13.60;;;8.07;;
40945;SDS011;55635;50.264;11.918;2023-04-06T05:06:29;11.65;;;7.82;;
40945;SDS011;55635;50.264;11.918;2023-04-06T05:09:10;10.13;;;7.22;;
40945;SDS011;55635;50.264;11.918;2023-04-06T05:11:55;12.43;;;8.38;;
40945;SDS011;55635;50.264;11.918;2023-04-06T05:14:36;9.70;;;6.97;;
40945;SDS011;55635;50.264;11.918;2023-04-06T05:17:21;12.18;;;7.65;;
40945;SDS011;55635;50.264;11.918;2023-04-06T05:20:04;10.45;;;7.72;;
40945;SDS011;55635;50.264;11.918;2023-04-06T05:22:50;10.63;;;7.15;;
40945;SDS011;55635;50.264;11.918;2023-04-06T05:25:31;10.80;;;7.82;;
40945;SDS011;55635;50.264;11.918;2023-04-06T05:31:02;10.80;;;7.43;;
40945;SDS011;55635;50.264;11.918;2023-04-06T05:33:51;17.50;;;10.13;;
40945;SDS011;55635;50.264;11.918;2023-04-06T05:36:42;10.80;;;6.63;;
40945;SDS011;55635;50.264;11.918;2023-04-06T05:39:37;24.40;;;11.50;;
40945;SDS011;55635;50.264;11.918;2023-04-06T05:42:18;17.73;;;9.20;;
40945;SDS011;55635;50.264;11.918;2023-04-06T05:45:11;19.15;;;10.55;;
40945;SDS011;55635;50.264;11.918;2023-04-06T05:47:57;15.10;;;10.25;;
40945;SDS011;55635;50.264;11.918;2023-04-06T05:50:42;19.75;;;11.15;;
40945;SDS011;55635;50.264;11.918;2023-04-06T05:53:25;19.83;;;11.50;;
40945;SDS011;55635;50.264;11.918;2023-04-06T05:56:11;18.88;;;11.18;;
40945;SDS011;55635;50.264;11.918;2023-04-06T05:58:53;16.30;;;11.00;;
40945;SDS011;55635;50.264;11.918;2023-04-06T06:01:40;14.98;;;10.27;;
40945;SDS011;55635;50.264;11.918;2023-04-06T06:04:21;12.00;;;7.45;;
40945;SDS011;55635;50.264;11.918;2023-04-06T06:07:06;12.13;;;7.80;;
40945;SDS011;55635;50.264;11.918;2023-04-06T06:09:52;12.30;;;7.38;;
40945;SDS011;55635;50.264;11.918;2023-04-06T06:12:43;12.02;;;7.90;;
40945;SDS011;55635;50.264;11.918;2023-04-06T06:15:26;10.27;;;7.20;;
40945;SDS011;55635;50.264;11.918;2023-04-06T06:18:07;12.52;;;7.32;;
40945;SDS011;55635;50.264;11.918;2023-04-06T06:20:48;10.30;;;6.60;;
40945;SDS011;55635;50.264;11.918;2023-04-06T06:23:29;8.40;;;6.18;;
40945;SDS011;55635;50.264;11.918;2023-04-06T06:26:10;10.25;;;6.60;;
40945;SDS011;55635;50.264;11.918;2023-04-06T06:28:51;8.30;;;6.40;;
40945;SDS011;55635;50.264;11.918;2023-04-06T06:31:32;9.40;;;6.45;;
40945;SDS011;55635;50.264;11.918;2023-04-06T06:34:13;13.32;;;7.35;;
40945;SDS011;55635;50.264;11.918;2023-04-06T06:36:56;9.90;;;5.78;;
40945;SDS011;55635;50.264;11.918;2023-04-06T06:39:37;10.25;;;5.65;;
40945;SDS011;55635;50.264;11.918;2023-04-06T06:42:18;8.85;;;5.47;;
40945;SDS011;55635;50.264;11.918;2023-04-06T06:45:20;6.40;;;5.40;;
40945;SDS011;55635;50.264;11.918;2023-04-06T06:48:01;8.88;;;5.35;;
40945;SDS011;55635;50.264;11.918;2023-04-06T06:50:42;6.78;;;5.57;;
40945;SDS011;55635;50.264;11.918;2023-04-06T06:53:23;7.25;;;5.63;;
40945;SDS011;55635;50.264;11.918;2023-04-06T06:56:04;8.82;;;5.63;;
40945;SDS011;55635;50.264;11.918;2023-04-06T06:58:46;8.88;;;5.80;;
40945;SDS011;55635;50.264;11.918;2023-04-06T07:01:27;6.55;;;5.55;;
40945;SDS011;55635;50.264;11.918;2023-04-06T07:04:09;8.25;;;5.75;;
40945;SDS011;55635;50.264;11.918;2023-04-06T07:06:50;8.88;;;5.25;;
40945;SDS011;55635;50.264;11.918;2023-04-06T07:09:32;7.32;;;5.68;;
40945;SDS011;55635;50.264;11.918;2023-04-06T07:12:14;7.50;;;5.07;;
40945;SDS011;55635;50.264;11.918;2023-04-06T07:14:56;8.32;;;4.90;;
40945;SDS011;55635;50.264;11.918;2023-04-06T07:17:37;8.10;;;5.05;;
40945;SDS011;55635;50.264;11.918;2023-04-06T07:20:18;5.53;;;4.72;;
40945;SDS011;55635;50.264;11.918;2023-04-06T07:23:00;6.28;;;4.50;;
40945;SDS011;55635;50.264;11.918;2023-04-06T07:25:43;5.55;;;4.70;;
40945;SDS011;55635;50.264;11.918;2023-04-06T07:28:24;5.30;;;4.72;;
40945;SDS011;55635;50.264;11.918;2023-04-06T07:31:08;5.82;;;5.10;;
40945;SDS011;55635;50.264;11.918;2023-04-06T07:33:49;7.20;;;4.90;;
40945;SDS011;55635;50.264;11.918;2023-04-06T07:36:31;8.30;;;4.18;;
40945;SDS011;55635;50.264;11.918;2023-04-06T07:39:13;5.00;;;4.30;;
40945;SDS011;55635;50.264;11.918;2023-04-06T07:41:54;5.35;;;4.30;;
40945;SDS011;55635;50.264;11.918;2023-04-06T07:44:35;7.50;;;4.63;;
40945;SDS011;55635;50.264;11.918;2023-04-06T07:47:17;5.47;;;4.30;;
40945;SDS011;55635;50.264;11.918;2023-04-06T07:49:58;6.88;;;4.88;;
40945;SDS011;55635;50.264;11.918;2023-04-06T07:52:39;5.32;;;3.88;;
40945;SDS011;55635;50.264;11.918;2023-04-06T07:55:21;5.28;;;4.20;;
40945;SDS011;55635;50.264;11.918;2023-04-06T07:58:02;4.78;;;3.90;;
40945;SDS011;55635;50.264;11.918;2023-04-06T08:00:43;4.65;;;4.25;;
40945;SDS011;55635;50.264;11.918;2023-04-06T08:03:24;7.72;;;5.15;;
40945;SDS011;55635;50.264;11.918;2023-04-06T08:06:05;6.82;;;4.30;;
40945;SDS011;55635;50.264;11.918;2023-04-06T08:08:46;5.75;;;4.57;;
40945;SDS011;55635;50.264;11.918;2023-04-06T08:11:27;6.65;;;4.75;;
40945;SDS011;55635;50.264;11.918;2023-04-06T08:14:08;8.73;;;4.50;;
40945;SDS011;55635;50.264;11.918;2023-04-06T08:16:49;5.60;;;4.13;;
40945;SDS011;55635;50.264;11.918;2023-04-06T08:19:30;5.32;;;4.57;;
40945;SDS011;55635;50.264;11.918;2023-04-06T08:22:11;6.28;;;4.50;;
40945;SDS011;55635;50.264;11.918;2023-04-06T08:24:52;7.95;;;4.47;;
40945;SDS011;55635;50.264;11.918;2023-04-06T08:27:33;8.30;;;4.97;;
40945;SDS011;55635;50.264;11.918;2023-04-06T08:30:14;10.30;;;5.93;;
40945;SDS011;55635;50.264;11.918;2023-04-06T08:32:56;7.47;;;5.10;;
40945;SDS011;55635;50.264;11.918;2023-04-06T08:35:37;10.38;;;6.10;;
40945;SDS011;55635;50.264;11.918;2023-04-06T08:38:18;6.10;;;5.38;;
40945;SDS011;55635;50.264;11.918;2023-04-06T08:40:58;6.88;;;6.00;;
40945;SDS011;55635;50.264;11.918;2023-04-06T08:43:44;7.55;;;5.85;;
40945;SDS011;55635;50.264;11.918;2023-04-06T08:46:43;9.40;;;5.80;;
40945;SDS011;55635;50.264;11.918;2023-04-06T08:49:24;7.75;;;5.93;;
40945;SDS011;55635;50.264;11.918;2023-04-06T08:52:06;9.15;;;5.57;;
40945;SDS011;55635;50.264;11.918;2023-04-06T08:54:48;8.32;;;5.70;;
40945;SDS011;55635;50.264;11.918;2023-04-06T08:57:29;8.43;;;5.78;;
40945;SDS011;55635;50.264;11.918;2023-04-06T09:00:12;7.53;;;5.45;;
40945;SDS011;55635;50.264;11.918;2023-04-06T09:02:54;7.88;;;5.70;;
40945;SDS011;55635;50.264;11.918;2023-04-06T09:05:37;6.35;;;5.28;;
40945;SDS011;55635;50.264;11.918;2023-04-06T09:08:19;9.73;;;5.88;;
40945;SDS011;55635;50.264;11.918;2023-04-06T09:11:01;6.65;;;5.95;;
40945;SDS011;55635;50.264;11.918;2023-04-06T09:16:38;8.45;;;5.93;;
40945;SDS011;55635;50.264;11.918;2023-04-06T09:19:21;7.32;;;6.13;;
40945;SDS011;55635;50.264;11.918;2023-04-06T09:22:06;8.90;;;6.30;;
40945;SDS011;55635;50.264;11.918;2023-04-06T09:24:48;6.50;;;5.85;;
40945;SDS011;55635;50.264;11.918;2023-04-06T09:27:31;6.78;;;5.63;;
40945;SDS011;55635;50.264;11.918;2023-04-06T09:30:14;8.93;;;5.90;;
40945;SDS011;55635;50.264;11.918;2023-04-06T09:32:57;17.27;;;6.13;;
40945;SDS011;55635;50.264;11.918;2023-04-06T09:35:39;7.45;;;5.93;;
40945;SDS011;55635;50.264;11.918;2023-04-06T09:38:29;6.25;;;5.65;;
40945;SDS011;55635;50.264;11.918;2023-04-06T09:41:10;8.00;;;5.72;;
40945;SDS011;55635;50.264;11.918;2023-04-06T09:43:51;7.43;;;5.75;;
40945;SDS011;55635;50.264;11.918;2023-04-06T09:46:42;9.98;;;6.70;;
40945;SDS011;55635;50.264;11.918;2023-04-06T09:49:29;8.57;;;6.30;;
40945;SDS011;55635;50.264;11.918;2023-04-06T09:52:13;8.80;;;6.18;;
40945;SDS011;55635;50.264;11.918;2023-04-06T09:54:59;6.95;;;5.60;;
40945;SDS011;55635;50.264;11.918;2023-04-06T09:57:52;9.80;;;5.45;;
40945;SDS011;55635;50.264;11.918;2023-04-06T10:00:43;6.53;;;5.30;;
40945;SDS011;55635;50.264;11.918;2023-04-06T10:07:03;10.35;;;6.25;;
40945;SDS011;55635;50.264;11.918;2023-04-06T10:09:46;6.53;;;5.38;;
40945;SDS011;55635;50.264;11.918;2023-04-06T10:12:29;7.97;;;5.05;;
40945;SDS011;55635;50.264;11.918;2023-04-06T10:15:10;6.95;;;5.60;;
40945;SDS011;55635;50.264;11.918;2023-04-06T10:17:51;5.90;;;4.90;;
40945;SDS011;55635;50.264;11.918;2023-04-06T10:26:28;5.43;;;4.93;;
40945;SDS011;55635;50.264;11.918;2023-04-06T10:29:09;6.38;;;5.30;;
40945;SDS011;55635;50.264;11.918;2023-04-06T10:31:49;6.43;;;5.13;;
40945;SDS011;55635;50.264;11.918;2023-04-06T10:34:34;5.53;;;5.00;;
40945;SDS011;55635;50.264;11.918;2023-04-06T10:37:16;5.10;;;4.60;;
40945;SDS011;55635;50.264;11.918;2023-04-06T10:39:59;6.85;;;5.25;;
40945;SDS011;55635;50.264;11.918;2023-04-06T10:42:40;5.75;;;5.15;;
40945;SDS011;55635;50.264;11.918;2023-04-06T10:48:13;6.03;;;5.43;;
40945;SDS011;55635;50.264;11.918;2023-04-06T10:50:55;5.00;;;4.40;;
40945;SDS011;55635;50.264;11.918;2023-04-06T10:53:37;5.60;;;4.80;;
40945;SDS011;55635;50.264;11.918;2023-04-06T10:56:20;6.10;;;5.28;;
40945;SDS011;55635;50.264;11.918;2023-04-06T10:59:05;6.20;;;5.53;;
40945;SDS011;55635;50.264;11.918;2023-04-06T11:01:47;6.05;;;5.40;;
40945;SDS011;55635;50.264;11.918;2023-04-06T11:04:29;5.15;;;4.65;;
40945;SDS011;55635;50.264;11.918;2023-04-06T11:07:10;6.03;;;4.72;;
40945;SDS011;55635;50.264;11.918;2023-04-06T11:09:51;5.63;;;4.80;;
40945;SDS011;55635;50.264;11.918;2023-04-06T11:12:35;6.07;;;4.90;;
40945;SDS011;55635;50.264;11.918;2023-04-06T11:15:16;5.93;;;4.70;;
40945;SDS011;55635;50.264;11.918;2023-04-06T11:17:57;5.30;;;4.80;;
40945;SDS011;55635;50.264;11.918;2023-04-06T11:20:38;5.22;;;4.57;;
40945;SDS011;55635;50.264;11.918;2023-04-06T11:23:24;6.07;;;4.60;;
40945;SDS011;55635;50.264;11.918;2023-04-06T11:26:09;4.95;;;4.40;;
40945;SDS011;55635;50.264;11.918;2023-04-06T11:28:54;5.43;;;4.65;;
40945;SDS011;55635;50.264;11.918;2023-04-06T11:31:48;5.72;;;5.20;;
40945;SDS011;55635;50.264;11.918;2023-04-06T11:34:33;6.53;;;5.93;;
40945;SDS011;55635;50.264;11.918;2023-04-06T11:37:17;6.32;;;5.55;;
40945;SDS011;55635;50.264;11.918;2023-04-06T11:39:58;6.60;;;5.95;;
40945;SDS011;55635;50.264;11.918;2023-04-06T11:42:39;5.10;;;4.65;;
40945;SDS011;55635;50.264;11.918;2023-04-06T11:45:20;7.65;;;5.30;;
40945;SDS011;55635;50.264;11.918;2023-04-06T11:48:02;6.75;;;5.70;;
40945;SDS011;55635;50.264;11.918;2023-04-06T11:50:46;8.50;;;5.88;;
40945;SDS011;55635;50.264;11.918;2023-04-06T11:53:28;5.70;;;5.07;;
40945;SDS011;55635;50.264;11.918;2023-04-06T11:56:09;6.90;;;4.93;;
40945;SDS011;55635;50.264;11.918;2023-04-06T11:58:51;7.78;;;4.68;;
40945;SDS011;55635;50.264;11.918;2023-04-06T12:01:34;4.80;;;4.40;;
40945;SDS011;55635;50.264;11.918;2023-04-06T12:04:24;6.28;;;3.90;;
40945;SDS011;55635;50.264;11.918;2023-04-06T12:07:05;5.90;;;5.30;;
40945;SDS011;55635;50.264;11.918;2023-04-06T12:09:47;5.03;;;4.60;;
40945;SDS011;55635;50.264;11.918;2023-04-06T12:12:28;7.55;;;4.65;;
40945;SDS011;55635;50.264;11.918;2023-04-06T12:15:09;7.97;;;4.32;;
40945;SDS011;55635;50.264;11.918;2023-04-06T12:17:50;5.40;;;4.90;;
40945;SDS011;55635;50.264;11.918;2023-04-06T12:20:31;5.47;;;4.65;;
40945;SDS011;55635;50.264;11.918;2023-04-06T12:23:13;7.07;;;4.50;;
40945;SDS011;55635;50.264;11.918;2023-04-06T12:25:54;5.97;;;4.75;;
40945;SDS011;55635;50.264;11.918;2023-04-06T12:28:35;6.25;;;4.63;;
40945;SDS011;55635;50.264;11.918;2023-04-06T12:31:16;5.00;;;4.50;;
40945;SDS011;55635;50.264;11.918;2023-04-06T12:33:59;4.10;;;3.70;;
40945;SDS011;55635;50.264;11.918;2023-04-06T12:36:42;6.07;;;4.65;;
40945;SDS011;55635;50.264;11.918;2023-04-06T12:39:23;5.30;;;4.18;;
40945;SDS011;55635;50.264;11.918;2023-04-06T12:42:04;7.07;;;5.05;;
40945;SDS011;55635;50.264;11.918;2023-04-06T12:44:45;5.43;;;4.93;;
40945;SDS011;55635;50.264;11.918;2023-04-06T12:47:27;5.28;;;4.47;;
40945;SDS011;55635;50.264;11.918;2023-04-06T12:50:09;5.75;;;5.20;;
40945;SDS011;55635;50.264;11.918;2023-04-06T12:52:50;4.47;;;4.05;;
40945;SDS011;55635;50.264;11.918;2023-04-06T12:55:31;5.47;;;4.78;;
40945;SDS011;55635;50.264;11.918;2023-04-06T12:58:14;6.00;;;4.90;;
40945;SDS011;55635;50.264;11.918;2023-04-06T13:00:57;5.95;;;5.07;;
40945;SDS011;55635;50.264;11.918;2023-04-06T13:03:42;6.32;;;5.30;;
40945;SDS011;55635;50.264;11.918;2023-04-06T13:06:24;9.30;;;5.30;;
40945;SDS011;55635;50.264;11.918;2023-04-06T13:09:07;6.05;;;5.13;;
40945;SDS011;55635;50.264;11.918;2023-04-06T13:11:48;5.82;;;5.32;;
40945;SDS011;55635;50.264;11.918;2023-04-06T13:14:29;8.98;;;6.07;;
40945;SDS011;55635;50.264;11.918;2023-04-06T13:17:11;6.18;;;5.28;;
40945;SDS011;55635;50.264;11.918;2023-04-06T13:19:52;6.00;;;5.40;;
40945;SDS011;55635;50.264;11.918;2023-04-06T13:22:33;4.82;;;4.38;;
40945;SDS011;55635;50.264;11.918;2023-04-06T13:25:14;4.78;;;4.35;;
40945;SDS011;55635;50.264;11.918;2023-04-06T13:27:55;4.90;;;4.40;;
40945;SDS011;55635;50.264;11.918;2023-04-06T13:30:36;5.03;;;4.63;;
40945;SDS011;55635;50.264;11.918;2023-04-06T13:33:17;4.82;;;4.43;;
40945;SDS011;55635;50.264;11.918;2023-04-06T13:35:58;5.43;;;4.00;;
40945;SDS011;55635;50.264;11.918;2023-04-06T13:38:39;5.82;;;4.43;;
40945;SDS011;55635;50.264;11.918;2023-04-06T13:41:21;9.00;;;4.88;;
40945;SDS011;55635;50.264;11.918;2023-04-06T13:44:05;5.32;;;4.65;;
40945;SDS011;55635;50.264;11.918;2023-04-06T13:46:46;5.22;;;4.57;;
40945;SDS011;55635;50.264;11.918;2023-04-06T13:49:27;5.70;;;5.20;;
40945;SDS011;55635;50.264;11.918;2023-04-06T13:52:08;5.25;;;4.10;;
40945;SDS011;55635;50.264;11.918;2023-04-06T13:54:52;8.45;;;4.75;;
40945;SDS011;55635;50.264;11.918;2023-04-06T13:57:36;6.85;;;5.68;;
40945;SDS011;55635;50.264;11.918;2023-04-06T14:00:17;7.03;;;6.05;;
40945;SDS011;55635;50.264;11.918;2023-04-06T14:02:59;5.65;;;4.97;;
40945;SDS011;55635;50.264;11.918;2023-04-06T14:05:40;6.28;;;4.78;;
40945;SDS011;55635;50.264;11.918;2023-04-06T14:08:21;5.60;;;5.15;;
40945;SDS011;55635;50.264;11.918;2023-04-06T14:11:02;5.53;;;5.03;;
40945;SDS011;55635;50.264;11.918;2023-04-06T14:13:43;7.88;;;5.70;;
40945;SDS011;55635;50.264;11.918;2023-04-06T14:16:23;5.72;;;5.13;;
40945;SDS011;55635;50.264;11.918;2023-04-06T14:19:04;6.45;;;4.93;;
40945;SDS011;55635;50.264;11.918;2023-04-06T14:21:45;7.95;;;5.72;;
40945;SDS011;55635;50.264;11.918;2023-04-06T14:24:27;6.35;;;5.03;;
40945;SDS011;55635;50.264;11.918;2023-04-06T14:27:08;7.82;;;4.88;;
40945;SDS011;55635;50.264;11.918;2023-04-06T14:29:49;6.97;;;4.38;;
40945;SDS011;55635;50.264;11.918;2023-04-06T14:32:29;6.78;;;4.60;;
40945;SDS011;55635;50.264;11.918;2023-04-06T14:35:10;5.43;;;4.93;;
40945;SDS011;55635;50.264;11.918;2023-04-06T14:37:51;5.15;;;4.65;;
40945;SDS011;55635;50.264;11.918;2023-04-06T14:40:34;5.50;;;4.85;;
40945;SDS011;55635;50.264;11.918;2023-04-06T14:43:16;4.90;;;4.43;;
40945;SDS011;55635;50.264;11.918;2023-04-06T14:46:01;5.95;;;4.20;;
40945;SDS011;55635;50.264;11.918;2023-04-06T14:48:45;5.50;;;4.88;;
40945;SDS011;55635;50.264;11.918;2023-04-06T14:51:27;5.07;;;4.57;;
40945;SDS011;55635;50.264;11.918;2023-04-06T14:54:08;5.88;;;4.70;;
40945;SDS011;55635;50.264;11.918;2023-04-06T14:56:49;5.65;;;4.88;;
40945;SDS011;55635;50.264;11.918;2023-04-06T14:59:30;5.45;;;4.82;;
40945;SDS011;55635;50.264;11.918;2023-04-06T15:02:12;5.30;;;4.80;;
40945;SDS011;55635;50.264;11.918;2023-04-06T15:04:53;5.22;;;4.55;;
40945;SDS011;55635;50.264;11.918;2023-04-06T15:07:34;6.32;;;4.70;;
40945;SDS011;55635;50.264;11.918;2023-04-06T15:10:15;5.18;;;4.55;;
40945;SDS011;55635;50.264;11.918;2023-04-06T15:12:56;5.57;;;5.07;;
40945;SDS011;55635;50.264;11.918;2023-04-06T15:15:37;5.03;;;4.50;;
40945;SDS011;55635;50.264;11.918;2023-04-06T15:18:18;4.88;;;4.47;;
40945;SDS011;55635;50.264;11.918;2023-04-06T15:21:00;5.85;;;5.22;;
40945;SDS011;55635;50.264;11.918;2023-04-06T15:23:41;5.13;;;4.63;;
40945;SDS011;55635;50.264;11.918;2023-04-06T15:26:22;5.22;;;4.72;;
40945;SDS011;55635;50.264;11.918;2023-04-06T15:29:03;5.60;;;5.07;;
40945;SDS011;55635;50.264;11.918;2023-04-06T15:31:44;5.78;;;5.28;;
40945;SDS011;55635;50.264;11.918;2023-04-06T15:34:25;5.82;;;5.28;;
40945;SDS011;55635;50.264;11.918;2023-04-06T15:37:10;4.75;;;4.35;;
40945;SDS011;55635;50.264;11.918;2023-04-06T15:39:51;5.40;;;4.70;;
40945;SDS011;55635;50.264;11.918;2023-04-06T15:42:32;5.70;;;5.10;;
40945;SDS011;55635;50.264;11.918;2023-04-06T15:45:13;6.03;;;4.63;;
40945;SDS011;55635;50.264;11.918;2023-04-06T15:47:54;5.68;;;5.10;;
40945;SDS011;55635;50.264;11.918;2023-04-06T15:50:35;6.28;;;5.60;;
40945;SDS011;55635;50.264;11.918;2023-04-06T15:53:16;6.38;;;4.93;;
40945;SDS011;55635;50.264;11.918;2023-04-06T15:56:00;6.97;;;5.00;;
40945;SDS011;55635;50.264;11.918;2023-04-06T15:58:44;5.68;;;5.05;;
40945;SDS011;55635;50.264;11.918;2023-04-06T16:01:25;5.15;;;4.65;;
40945;SDS011;55635;50.264;11.918;2023-04-06T16:04:06;7.05;;;5.57;;
40945;SDS011;55635;50.264;11.918;2023-04-06T16:06:47;5.90;;;4.93;;
40945;SDS011;55635;50.264;11.918;2023-04-06T16:09:29;6.07;;;5.47;;
40945;SDS011;55635;50.264;11.918;2023-04-06T16:12:10;4.53;;;4.22;;
40945;SDS011;55635;50.264;11.918;2023-04-06T16:14:51;5.63;;;5.13;;
40945;SDS011;55635;50.264;11.918;2023-04-06T16:17:32;6.43;;;5.18;;
40945;SDS011;55635;50.264;11.918;2023-04-06T16:20:13;6.18;;;5.57;;